Time;durP1;ratioP1;P1;durP2;ratioP2;P2;SDS_P1;SDS_P2;PMS_P1;PMS_P2;Temp;Humidity;BMP_temperature;BMP_pressure;BME280_temperature;BME280_humidity;BME280_pressure;Samples;Min_cycle;Max_cycle;Signal;HPM_P1;HPM_P2
2021/12/09 00:01:00;;;;;;;4.25;1.52;;;4.90;99.90;;;;;;5018113;28;20049;-65
2021/12/09 00:03:28;;;;;;;2.63;1.63;;;4.80;99.90;;;;;;5024150;28;20115;-65
2021/12/09 00:05:56;;;;;;;4.50;1.83;;;4.70;99.90;;;;;;5026754;28;20087;-65
2021/12/09 00:08:22;;;;;;;6.95;2.08;;;4.70;99.90;;;;;;5021107;28;20403;-65
2021/12/09 00:10:48;;;;;;;4.53;1.67;;;4.60;99.90;;;;;;5026834;28;20578;-65
2021/12/09 00:13:13;;;;;;;3.72;1.88;;;4.70;99.90;;;;;;5026617;28;20025;-65
2021/12/09 00:15:39;;;;;;;6.28;1.50;;;4.70;99.90;;;;;;5024170;28;20029;-65
2021/12/09 00:18:05;;;;;;;1.42;1.00;;;4.60;99.90;;;;;;5025185;28;20567;-66
2021/12/09 00:20:30;;;;;;;5.18;2.15;;;4.50;99.90;;;;;;5022870;28;20060;-65
2021/12/09 00:22:56;;;;;;;2.72;1.25;;;4.50;99.90;;;;;;5018905;28;20026;-65
2021/12/09 00:25:22;;;;;;;1.23;1.00;;;4.50;99.90;;;;;;5020912;28;20049;-65
2021/12/09 00:27:47;;;;;;;2.38;1.38;;;4.50;99.90;;;;;;5024534;28;20030;-65
2021/12/09 00:30:13;;;;;;;5.00;1.98;;;4.40;99.90;;;;;;5027453;28;20031;-65
2021/12/09 00:32:40;;;;;;;7.15;1.85;;;4.30;99.90;;;;;;5031522;28;19998;-65
2021/12/09 00:35:08;;;;;;;3.40;1.52;;;4.30;99.90;;;;;;5032268;28;20120;-65
2021/12/09 00:37:39;;;;;;;3.88;1.63;;;4.20;99.90;;;;;;5032918;28;20014;-65
2021/12/09 00:40:07;;;;;;;4.07;1.80;;;4.20;99.90;;;;;;5027147;28;20022;-65
2021/12/09 00:42:33;;;;;;;6.00;2.53;;;4.20;99.90;;;;;;5030716;28;20013;-65
2021/12/09 00:44:58;;;;;;;11.82;2.28;;;4.10;99.90;;;;;;5026947;28;20029;-65
2021/12/09 00:47:25;;;;;;;3.35;1.38;;;4.10;99.90;;;;;;5028672;28;20478;-65
2021/12/09 00:49:55;;;;;;;3.80;1.63;;;4.10;99.90;;;;;;5026137;28;20078;-65
2021/12/09 00:52:24;;;;;;;3.38;1.75;;;4.10;99.90;;;;;;5026824;28;20028;-65
2021/12/09 00:54:51;;;;;;;8.87;1.57;;;4.10;99.90;;;;;;5030467;28;20033;-65
2021/12/09 00:57:18;;;;;;;4.32;2.03;;;4.10;99.90;;;;;;5029863;28;20036;-65
2021/12/09 00:59:43;;;;;;;3.78;1.38;;;4.10;99.90;;;;;;5030319;28;20489;-65
2021/12/09 01:02:10;;;;;;;2.00;1.33;;;4.00;99.90;;;;;;5026474;28;20025;-65
2021/12/09 01:04:40;;;;;;;1.80;1.10;;;4.10;99.90;;;;;;5030137;28;20020;-65
2021/12/09 01:07:07;;;;;;;5.03;2.05;;;4.00;99.90;;;;;;5026729;28;20486;-65
2021/12/09 01:09:33;;;;;;;2.30;1.30;;;4.00;99.90;;;;;;5028733;28;20127;-65
2021/12/09 01:11:58;;;;;;;14.82;2.00;;;4.00;99.90;;;;;;5025126;28;20061;-65
2021/12/09 01:14:25;;;;;;;2.80;1.42;;;4.00;99.90;;;;;;5021622;28;20854;-65
2021/12/09 01:16:50;;;;;;;11.82;2.05;;;4.00;99.90;;;;;;5028195;28;20055;-64
2021/12/09 01:19:16;;;;;;;2.20;1.25;;;3.90;99.90;;;;;;5027209;28;20033;-65
2021/12/09 01:21:42;;;;;;;11.85;1.63;;;3.80;99.90;;;;;;5027636;28;20025;-65
2021/12/09 01:24:08;;;;;;;2.35;1.33;;;3.80;99.90;;;;;;5027845;28;20028;-65
2021/12/09 01:26:34;;;;;;;8.10;1.60;;;3.80;99.90;;;;;;5013754;28;20149;-65
2021/12/09 01:29:06;;;;;;;1.92;1.10;;;3.70;99.90;;;;;;5027853;28;20036;-65
2021/12/09 01:31:37;;;;;;;3.65;1.42;;;3.70;99.90;;;;;;5026571;28;20393;-65
2021/12/09 01:34:04;;;;;;;1.88;1.10;;;3.60;99.90;;;;;;5028274;28;20025;-65
2021/12/09 01:36:35;;;;;;;4.07;1.83;;;3.60;99.90;;;;;;5024748;28;20030;-65
2021/12/09 01:39:04;;;;;;;1.70;1.08;;;3.50;99.90;;;;;;5023887;28;20466;-65
2021/12/09 01:41:30;;;;;;;8.45;2.05;;;3.50;99.90;;;;;;5017914;28;20026;-65
2021/12/09 01:43:56;;;;;;;2.58;1.30;;;3.50;99.90;;;;;;5028126;28;20022;-65
2021/12/09 01:46:22;;;;;;;9.13;1.90;;;3.50;99.90;;;;;;5028093;28;20025;-65
2021/12/09 01:48:49;;;;;;;3.33;1.65;;;3.60;99.90;;;;;;5028467;28;20132;-65
2021/12/09 01:51:17;;;;;;;2.95;1.42;;;3.50;99.90;;;;;;5027032;28;20474;-65
2021/12/09 01:53:43;;;;;;;6.03;2.00;;;3.50;99.90;;;;;;5028837;28;20370;-65
2021/12/09 01:56:20;;;;;;;8.38;3.35;;;3.50;99.90;;;;;;5028574;28;20061;-65
2021/12/09 01:58:46;;;;;;;4.72;2.22;;;3.50;99.90;;;;;;5029382;28;20026;-65
2021/12/09 02:01:12;;;;;;;14.88;1.85;;;3.50;99.90;;;;;;5024794;28;20025;-65
2021/12/09 02:03:37;;;;;;;2.85;1.75;;;3.50;99.90;;;;;;5028437;28;20025;-65
2021/12/09 02:06:04;;;;;;;2.63;1.30;;;3.40;99.90;;;;;;5028819;28;20399;-65
2021/12/09 02:08:30;;;;;;;14.55;2.20;;;3.40;99.90;;;;;;5021036;28;20503;-65
2021/12/09 02:10:55;;;;;;;4.20;2.28;;;3.30;99.90;;;;;;5027636;28;20064;-65
2021/12/09 02:13:22;;;;;;;4.28;1.98;;;3.20;99.90;;;;;;5025540;28;20036;-65
2021/12/09 02:15:47;;;;;;;7.60;2.63;;;3.20;99.90;;;;;;5025463;28;20048;-65
2021/12/09 02:18:13;;;;;;;3.13;1.50;;;3.10;99.90;;;;;;5024917;28;20029;-65
2021/12/09 02:20:41;;;;;;;2.08;1.35;;;3.10;99.90;;;;;;5022104;28;20074;-65
2021/12/09 02:23:11;;;;;;;2.00;1.17;;;3.10;99.90;;;;;;5026683;28;20305;-65
2021/12/09 02:25:44;;;;;;;8.05;2.40;;;3.10;99.90;;;;;;5016658;28;20013;-65
2021/12/09 02:28:14;;;;;;;4.88;1.92;;;3.00;99.90;;;;;;5023740;28;20286;-65
2021/12/09 02:30:39;;;;;;;5.15;2.28;;;3.00;99.90;;;;;;5028890;28;20033;-65
2021/12/09 02:33:05;;;;;;;4.53;1.80;;;3.10;99.90;;;;;;5021504;28;20025;-65
2021/12/09 02:35:31;;;;;;;7.32;2.35;;;3.10;99.90;;;;;;5027352;28;20017;-65
2021/12/09 02:37:56;;;;;;;3.20;1.63;;;3.10;99.90;;;;;;5028244;28;20033;-65
2021/12/09 02:40:22;;;;;;;2.78;1.40;;;3.10;99.90;;;;;;5025301;28;20132;-65
2021/12/09 02:42:48;;;;;;;10.50;1.77;;;3.10;99.90;;;;;;5028112;28;20072;-65
2021/12/09 02:45:14;;;;;;;12.07;2.00;;;3.10;99.90;;;;;;5024591;28;20075;-65
2021/12/09 02:47:40;;;;;;;6.25;1.25;;;3.10;99.90;;;;;;5028174;28;20473;-65
2021/12/09 02:50:07;;;;;;;4.60;1.33;;;3.00;99.90;;;;;;5024307;28;20057;-65
2021/12/09 02:52:33;;;;;;;5.20;2.28;;;2.90;99.90;;;;;;5026571;28;20521;-65
2021/12/09 02:54:59;;;;;;;4.57;2.05;;;2.70;99.90;;;;;;5028538;28;20029;-65
2021/12/09 02:57:25;;;;;;;8.93;2.67;;;2.70;99.90;;;;;;5027721;28;20519;-65
2021/12/09 02:59:51;;;;;;;5.93;2.10;;;2.50;99.90;;;;;;5028322;28;20499;-65
2021/12/09 03:02:19;;;;;;;3.80;1.88;;;2.40;99.90;;;;;;5022932;28;20117;-65
2021/12/09 03:04:53;;;;;;;1.40;1.00;;;2.50;99.90;;;;;;5023391;28;20021;-65
2021/12/09 03:07:28;;;;;;;2.50;1.23;;;2.40;99.90;;;;;;5021034;28;20046;-65
2021/12/09 03:09:59;;;;;;;2.40;1.40;;;2.40;99.90;;;;;;5026372;28;20445;-65
2021/12/09 03:12:26;;;;;;;2.63;1.58;;;2.30;99.90;;;;;;5020241;28;20026;-65
2021/12/09 03:14:52;;;;;;;10.00;2.58;;;2.40;99.90;;;;;;5026652;28;20024;-64
2021/12/09 03:17:19;;;;;;;2.20;1.33;;;2.50;99.90;;;;;;5027185;28;20501;-64
2021/12/09 03:19:46;;;;;;;6.38;2.63;;;2.50;99.90;;;;;;5023666;28;20030;-65
2021/12/09 03:22:12;;;;;;;4.05;1.80;;;2.50;99.90;;;;;;5025638;28;20047;-65
2021/12/09 03:24:38;;;;;;;2.25;1.30;;;2.50;99.90;;;;;;5023354;28;20022;-65
2021/12/09 03:27:05;;;;;;;3.38;1.30;;;2.50;99.90;;;;;;5024426;28;20545;-65
2021/12/09 03:29:31;;;;;;;2.80;1.45;;;2.50;99.90;;;;;;5022640;28;20030;-65
2021/12/09 03:32:00;;;;;;;2.65;1.33;;;2.50;99.90;;;;;;5036213;28;20599;-65
2021/12/09 03:34:28;;;;;;;6.38;2.83;;;2.50;99.90;;;;;;5018505;28;20095;-65
2021/12/09 03:36:55;;;;;;;5.40;2.42;;;2.50;99.90;;;;;;5027673;28;20034;-65
2021/12/09 03:39:26;;;;;;;3.72;1.90;;;2.50;99.90;;;;;;5024261;28;20030;-65
2021/12/09 03:41:52;;;;;;;;;;;2.50;99.90;;;;;;5027919;28;20104;-65
2021/12/09 03:44:18;;;;;;;5.18;1.70;;;2.50;99.90;;;;;;5024126;28;19979;-65
2021/12/09 03:46:44;;;;;;;4.53;2.45;;;2.40;99.90;;;;;;5027612;28;20021;-65
2021/12/09 03:49:10;;;;;;;4.85;2.40;;;2.40;99.90;;;;;;5024430;28;20022;-65
2021/12/09 03:51:36;;;;;;;4.35;1.52;;;2.40;99.90;;;;;;5026208;28;20044;-65
2021/12/09 03:54:08;;;;;;;3.92;1.38;;;2.30;99.90;;;;;;5027449;28;20101;-65
2021/12/09 03:56:36;;;;;;;10.13;2.53;;;2.30;99.90;;;;;;5027425;28;20036;-65
2021/12/09 03:59:10;;;;;;;4.18;2.15;;;2.30;99.90;;;;;;5027152;28;20100;-65
2021/12/09 04:01:38;;;;;;;4.18;2.08;;;2.30;99.90;;;;;;5024538;28;20495;-65
2021/12/09 04:04:05;;;;;;;2.83;1.50;;;2.20;99.90;;;;;;5027354;28;20017;-65
2021/12/09 04:06:31;;;;;;;2.92;1.73;;;2.20;99.90;;;;;;5029120;28;20402;-65
2021/12/09 04:08:57;;;;;;;4.03;1.90;;;2.10;99.90;;;;;;5030552;28;20064;-65
2021/12/09 04:11:23;;;;;;;4.57;2.17;;;1.90;99.90;;;;;;5027573;28;20053;-65
2021/12/09 04:13:49;;;;;;;5.18;2.28;;;1.90;99.90;;;;;;5022110;28;20021;-65
2021/12/09 04:16:15;;;;;;;3.85;1.83;;;1.90;99.90;;;;;;5024827;28;20362;-65
2021/12/09 04:18:42;;;;;;;2.47;1.10;;;2.00;99.90;;;;;;5031302;28;20032;-65
2021/12/09 04:21:08;;;;;;;2.95;1.75;;;2.10;99.90;;;;;;5025999;28;20021;-65
2021/12/09 04:23:34;;;;;;;2.03;1.48;;;2.20;99.90;;;;;;5023879;28;20032;-65
2021/12/09 04:26:00;;;;;;;4.60;1.88;;;2.30;99.90;;;;;;5029966;28;20025;-65
2021/12/09 04:28:26;;;;;;;3.63;1.75;;;2.30;99.90;;;;;;5026844;28;20099;-65
2021/12/09 04:30:52;;;;;;;1.80;1.08;;;2.30;99.90;;;;;;5031929;28;20025;-65
2021/12/09 04:33:18;;;;;;;3.28;1.60;;;2.20;99.90;;;;;;5025099;28;20108;-65
2021/12/09 04:35:44;;;;;;;4.55;2.20;;;2.30;99.90;;;;;;5027007;28;20489;-65
2021/12/09 04:38:10;;;;;;;2.30;1.33;;;2.30;99.90;;;;;;5019967;28;20041;-65
2021/12/09 04:40:35;;;;;;;2.60;1.65;;;2.30;99.90;;;;;;5030347;28;20029;-65
2021/12/09 04:43:01;;;;;;;2.15;1.40;;;2.30;99.90;;;;;;5031090;28;20022;-65
2021/12/09 04:45:28;;;;;;;8.98;2.30;;;2.30;99.90;;;;;;5026561;28;20342;-65
2021/12/09 04:47:54;;;;;;;2.22;1.38;;;2.30;99.90;;;;;;5026392;28;20030;-65
2021/12/09 04:50:20;;;;;;;9.52;2.42;;;2.30;99.90;;;;;;5027357;28;20038;-64
2021/12/09 04:52:45;;;;;;;2.60;1.20;;;2.30;99.90;;;;;;5026558;28;20029;-64
2021/12/09 04:55:11;;;;;;;11.00;3.50;;;2.30;99.90;;;;;;5031656;28;20056;-64
2021/12/09 04:57:42;;;;;;;4.90;2.05;;;2.30;99.90;;;;;;5028423;28;20029;-64
2021/12/09 05:00:15;;;;;;;6.28;1.60;;;2.30;99.90;;;;;;5029266;28;20033;-64
2021/12/09 05:05:26;;;;;;;1.25;0.98;;;2.30;99.90;;;;;;5020117;28;20076;-65
2021/12/09 05:07:51;;;;;;;3.05;1.50;;;2.30;99.90;;;;;;5022749;28;20046;-64
2021/12/09 05:10:17;;;;;;;1.20;1.00;;;2.30;99.90;;;;;;5026179;28;20124;-65
2021/12/09 05:12:43;;;;;;;3.05;1.88;;;2.40;99.90;;;;;;5028655;28;20480;-65
2021/12/09 05:15:10;;;;;;;4.72;2.03;;;2.40;99.90;;;;;;5027394;28;20025;-65
2021/12/09 05:17:36;;;;;;;5.80;2.55;;;2.30;99.90;;;;;;5026241;28;20419;-65
2021/12/09 05:20:04;;;;;;;4.03;2.05;;;2.30;99.90;;;;;;5018135;28;20037;-65
2021/12/09 05:22:31;;;;;;;7.10;1.65;;;2.20;99.90;;;;;;5022054;28;20022;-65
2021/12/09 05:24:57;;;;;;;7.88;1.95;;;2.10;99.90;;;;;;5017957;28;20051;-65
2021/12/09 05:27:23;;;;;;;6.00;1.20;;;2.10;99.90;;;;;;5039354;28;20440;-67
2021/12/09 05:30:03;;;;;;;3.45;2.00;;;2.10;99.90;;;;;;5027479;28;20033;-65
2021/12/09 05:32:29;;;;;;;6.78;2.92;;;2.00;99.90;;;;;;5024328;28;20026;-65
2021/12/09 05:34:55;;;;;;;4.53;1.88;;;2.00;99.90;;;;;;5028968;28;20037;-65
2021/12/09 05:37:26;;;;;;;3.90;1.77;;;1.90;99.90;;;;;;5027532;28;20184;-65
2021/12/09 05:39:54;;;;;;;4.43;2.28;;;1.90;99.90;;;;;;5026190;28;20037;-65
2021/12/09 05:42:22;;;;;;;2.60;1.60;;;1.90;99.90;;;;;;5025328;28;20093;-65
2021/12/09 05:44:48;;;;;;;3.30;1.60;;;1.80;99.90;;;;;;5028306;28;20029;-65
2021/12/09 05:47:14;;;;;;;9.57;1.92;;;1.80;99.90;;;;;;5028023;28;20032;-65
2021/12/09 05:49:43;;;;;;;7.13;3.42;;;1.70;99.90;;;;;;5026030;28;20497;-66
2021/12/09 05:52:10;;;;;;;2.05;1.42;;;1.60;99.90;;;;;;5026647;28;20021;-65
2021/12/09 05:54:36;;;;;;;2.80;1.20;;;1.60;99.90;;;;;;5025411;28;20477;-65
2021/12/09 05:57:02;;;;;;;4.07;1.45;;;1.60;99.90;;;;;;5025107;28;20021;-65
2021/12/09 05:59:28;;;;;;;3.13;1.92;;;1.50;99.90;;;;;;5022543;28;20029;-65
2021/12/09 06:01:54;;;;;;;2.38;1.50;;;1.50;99.90;;;;;;5024907;28;20021;-65
2021/12/09 06:04:21;;;;;;;9.55;2.17;;;1.50;99.90;;;;;;5025698;28;20083;-64
2021/12/09 06:06:48;;;;;;;2.92;1.48;;;1.40;99.90;;;;;;5025779;28;20077;-65
2021/12/09 06:09:14;;;;;;;4.70;2.50;;;1.30;99.90;;;;;;5025170;28;20033;-65
2021/12/09 06:11:41;;;;;;;2.75;1.70;;;1.20;99.90;;;;;;5021792;28;20668;-65
2021/12/09 06:14:08;;;;;;;6.97;2.63;;;1.20;99.90;;;;;;5024981;28;20037;-65
2021/12/09 06:16:35;;;;;;;1.27;0.90;;;1.10;99.90;;;;;;5026832;28;20524;-65
2021/12/09 06:19:02;;;;;;;3.40;1.52;;;1.00;99.90;;;;;;5027242;28;20370;-65
2021/12/09 06:21:28;;;;;;;1.95;1.25;;;1.00;99.90;;;;;;5024174;28;20032;-65
2021/12/09 06:23:59;;;;;;;5.72;2.28;;;1.10;99.90;;;;;;5027772;28;20026;-65
2021/12/09 06:26:25;;;;;;;1.65;1.23;;;1.20;99.90;;;;;;5021674;28;20040;-65
2021/12/09 06:28:51;;;;;;;11.32;2.38;;;1.20;99.90;;;;;;5016119;28;20026;-65
2021/12/09 06:31:17;;;;;;;2.50;1.65;;;1.30;99.90;;;;;;5028372;28;20375;-65
2021/12/09 06:33:43;;;;;;;2.72;1.73;;;1.30;99.90;;;;;;5026101;28;20526;-65
2021/12/09 06:36:08;;;;;;;4.22;1.95;;;1.40;99.90;;;;;;5021614;28;20440;-65
2021/12/09 06:38:35;;;;;;;3.10;1.83;;;1.40;99.90;;;;;;5027034;28;20709;-65
2021/12/09 06:41:01;;;;;;;5.50;2.70;;;1.40;99.90;;;;;;5025687;28;20623;-65
2021/12/09 06:43:27;;;;;;;4.60;2.35;;;1.40;99.90;;;;;;5026709;28;20022;-65
2021/12/09 06:45:54;;;;;;;5.25;2.70;;;1.40;99.90;;;;;;5023231;28;20460;-65
2021/12/09 06:48:20;;;;;;;3.70;2.25;;;1.30;99.90;;;;;;5028076;28;20040;-65
2021/12/09 06:50:46;;;;;;;3.92;1.77;;;1.20;99.90;;;;;;5021424;28;20029;-65
2021/12/09 06:53:14;;;;;;;4.50;1.60;;;1.20;99.90;;;;;;5027422;28;20026;-65
2021/12/09 06:55:41;;;;;;;2.90;1.45;;;1.10;99.90;;;;;;5022206;28;20120;-65
2021/12/09 06:58:07;;;;;;;6.72;1.83;;;1.00;99.90;;;;;;5027662;28;20147;-65
2021/12/09 07:00:34;;;;;;;5.38;2.50;;;0.90;99.90;;;;;;5025766;28;20104;-65
2021/12/09 07:03:00;;;;;;;1.35;1.10;;;0.90;99.90;;;;;;5026991;28;20022;-65
2021/12/09 07:05:29;;;;;;;3.90;1.98;;;1.20;99.90;;;;;;5020645;28;20022;-65
2021/12/09 07:07:55;;;;;;;3.10;2.28;;;1.20;99.90;;;;;;5022165;28;20033;-65
2021/12/09 07:10:22;;;;;;;5.32;2.15;;;1.30;99.90;;;;;;5026883;28;20025;-65
2021/12/09 07:12:48;;;;;;;4.25;1.80;;;1.30;99.90;;;;;;5024450;28;20063;-65
2021/12/09 07:15:14;;;;;;;3.55;1.92;;;1.40;99.90;;;;;;5024915;28;20478;-65
2021/12/09 07:17:40;;;;;;;8.07;3.08;;;1.40;99.90;;;;;;5021710;28;20449;-65
2021/12/09 07:20:09;;;;;;;9.30;2.20;;;1.50;99.90;;;;;;5024098;28;20061;-65
2021/12/09 07:22:35;;;;;;;8.85;3.45;;;1.50;99.90;;;;;;5037293;28;20026;-65
2021/12/09 07:25:01;;;;;;;5.20;1.73;;;1.40;99.90;;;;;;5025391;28;20021;-65
2021/12/09 07:27:27;;;;;;;2.25;1.38;;;1.50;99.90;;;;;;5025511;28;20040;-65
2021/12/09 07:29:52;;;;;;;3.50;2.08;;;1.50;99.90;;;;;;5026536;28;20021;-65
2021/12/09 07:32:18;;;;;;;4.85;1.85;;;1.50;99.90;;;;;;5024716;28;20405;-65
2021/12/09 07:34:43;;;;;;;3.22;1.75;;;1.50;99.90;;;;;;5022952;28;20014;-65
2021/12/09 07:37:09;;;;;;;2.42;1.42;;;1.50;99.90;;;;;;5020042;28;20552;-65
2021/12/09 07:39:35;;;;;;;1.50;1.15;;;1.60;99.90;;;;;;5028039;28;20025;-65
2021/12/09 07:42:03;;;;;;;4.38;1.65;;;1.60;99.90;;;;;;5030125;28;20378;-66
2021/12/09 07:44:30;;;;;;;2.58;1.60;;;1.50;99.90;;;;;;5027577;28;20025;-65
2021/12/09 07:46:58;;;;;;;2.92;1.50;;;1.50;99.90;;;;;;5030608;28;20026;-65
2021/12/09 07:49:25;;;;;;;14.15;2.38;;;1.60;99.90;;;;;;5030213;28;20059;-65
2021/12/09 07:51:52;;;;;;;6.55;2.35;;;1.60;99.90;;;;;;5027734;28;20034;-65
2021/12/09 07:54:18;;;;;;;2.92;2.33;;;1.60;99.90;;;;;;5031739;28;20397;-65
2021/12/09 07:56:45;;;;;;;1.88;1.08;;;1.60;99.90;;;;;;5034085;28;20481;-65
2021/12/09 07:59:11;;;;;;;6.30;2.22;;;1.70;99.90;;;;;;5029405;28;20083;-65
2021/12/09 08:01:38;;;;;;;2.53;1.58;;;1.80;99.90;;;;;;5031784;28;20634;-65
2021/12/09 08:04:04;;;;;;;2.40;1.25;;;1.80;99.90;;;;;;5025089;28;20021;-65
2021/12/09 08:06:30;;;;;;;4.28;1.80;;;1.80;99.90;;;;;;5019789;28;20037;-65
2021/12/09 08:08:56;;;;;;;3.55;1.65;;;1.90;99.90;;;;;;5020023;28;20044;-65
2021/12/09 08:11:21;;;;;;;4.65;2.05;;;2.00;99.90;;;;;;5020166;28;20033;-65
2021/12/09 08:13:49;;;;;;;5.30;1.92;;;2.00;99.90;;;;;;5019816;28;20033;-65
2021/12/09 08:16:16;;;;;;;5.47;1.85;;;2.00;99.90;;;;;;5020757;28;20029;-65
2021/12/09 08:19:17;;;;;;;0.77;0.77;;;2.10;99.90;;;;;;5018971;28;20410;-65
2021/12/09 08:21:37;;;;;;;3.80;1.83;;;2.10;99.90;;;;;;5018549;28;20037;-65
2021/12/09 08:24:05;;;;;;;6.78;2.58;;;2.10;99.90;;;;;;5018267;28;20048;-65
2021/12/09 08:26:31;;;;;;;3.95;1.58;;;2.10;99.90;;;;;;5018940;28;20021;-66
2021/12/09 08:28:56;;;;;;;3.33;2.15;;;2.10;99.90;;;;;;5039950;28;20034;-65
2021/12/09 08:31:23;;;;;;;6.90;2.05;;;2.20;99.90;;;;;;5022745;28;20128;-66
2021/12/09 08:33:49;;;;;;;2.83;1.60;;;2.30;99.90;;;;;;5018476;28;20033;-65
2021/12/09 08:36:14;;;;;;;7.97;2.13;;;2.40;99.90;;;;;;5016000;28;20679;-65
2021/12/09 08:38:40;;;;;;;4.15;1.67;;;2.60;99.90;;;;;;5020346;28;20543;-65
2021/12/09 08:41:07;;;;;;;16.75;1.52;;;2.70;99.90;;;;;;5023316;28;20025;-65
2021/12/09 08:43:33;;;;;;;9.25;1.95;;;2.80;99.90;;;;;;5020244;28;20041;-65
2021/12/09 08:45:58;;;;;;;4.55;1.88;;;2.90;99.90;;;;;;5024134;28;20099;-65
2021/12/09 08:48:25;;;;;;;3.92;1.77;;;3.00;99.90;;;;;;5018204;28;20024;-65
2021/12/09 08:50:52;;;;;;;3.80;2.03;;;3.10;99.90;;;;;;5016872;28;20030;-65
2021/12/09 08:53:22;;;;;;;4.18;2.00;;;3.30;99.90;;;;;;5018969;28;20053;-65
2021/12/09 08:55:48;;;;;;;5.85;2.67;;;3.60;99.90;;;;;;5019917;28;20079;-65
2021/12/09 08:58:14;;;;;;;3.47;2.08;;;3.90;99.90;;;;;;5019352;28;20521;-65
2021/12/09 09:00:42;;;;;;;4.50;2.30;;;4.20;99.90;;;;;;5021444;28;20359;-65
2021/12/09 09:03:08;;;;;;;1.33;1.02;;;4.30;99.90;;;;;;5017058;28;20045;-65
2021/12/09 09:05:35;;;;;;;4.82;1.90;;;4.40;99.90;;;;;;5019249;28;20636;-65
2021/12/09 09:08:03;;;;;;;4.72;2.00;;;4.50;99.90;;;;;;5016161;28;20418;-65
2021/12/09 09:10:31;;;;;;;2.78;1.85;;;4.80;99.90;;;;;;5014802;28;20022;-65
2021/12/09 09:12:57;;;;;;;3.72;1.42;;;5.00;99.90;;;;;;5018403;28;20021;-66
2021/12/09 09:15:25;;;;;;;5.13;1.85;;;5.10;99.90;;;;;;5017347;28;20075;-65
2021/12/09 09:17:51;;;;;;;7.85;2.17;;;5.40;99.90;;;;;;5014907;28;20105;-65
2021/12/09 09:20:20;;;;;;;7.72;2.28;;;5.70;99.90;;;;;;5016897;28;20062;-66
2021/12/09 09:22:46;;;;;;;2.50;1.23;;;6.00;99.90;;;;;;5012165;28;20447;-65
2021/12/09 09:25:17;;;;;;;21.00;2.97;;;6.10;99.90;;;;;;5017456;28;20324;-65
2021/12/09 09:27:44;;;;;;;4.72;2.15;;;6.10;99.90;;;;;;5016920;28;20026;-65
2021/12/09 09:30:14;;;;;;;4.57;2.05;;;6.30;99.90;;;;;;5018141;28;20038;-66
2021/12/09 09:32:41;;;;;;;4.20;1.75;;;6.60;99.90;;;;;;5014564;28;20025;-66
2021/12/09 09:35:09;;;;;;;6.05;2.33;;;7.00;99.90;;;;;;5014743;28;20026;-66
2021/12/09 09:37:35;;;;;;;4.05;1.85;;;7.00;99.90;;;;;;5016208;28;20038;-65
2021/12/09 09:40:01;;;;;;;2.22;1.40;;;6.90;99.90;;;;;;5021562;28;20049;-65
2021/12/09 09:45:07;;;;;;;3.88;2.05;;;6.90;99.90;;;;;;5020949;28;20025;-66
2021/12/09 09:47:33;;;;;;;5.70;1.77;;;7.00;99.90;;;;;;5018338;28;20115;-65
2021/12/09 09:49:59;;;;;;;3.95;2.17;;;7.30;99.90;;;;;;5014987;28;20064;-65
2021/12/09 09:52:26;;;;;;;7.93;2.38;;;7.10;99.90;;;;;;5014976;28;20112;-65
2021/12/09 09:54:54;;;;;;;2.33;1.33;;;7.00;99.90;;;;;;5020810;28;20392;-65
2021/12/09 09:57:20;;;;;;;13.02;1.20;;;7.10;99.90;;;;;;5017168;28;20088;-65
2021/12/09 09:59:46;;;;;;;1.70;1.13;;;7.00;99.90;;;;;;5019758;28;20025;-65
2021/12/09 10:02:13;;;;;;;1.10;0.90;;;6.70;99.90;;;;;;5017793;28;20035;-65
2021/12/09 10:07:08;;;;;;;1.58;1.00;;;6.10;99.90;;;;;;5015801;28;20049;-65
2021/12/09 10:09:34;;;;;;;7.70;2.28;;;6.20;99.90;;;;;;5022722;28;20029;-65
2021/12/09 10:12:01;;;;;;;5.35;1.80;;;6.00;99.90;;;;;;5019429;28;20689;-65
2021/12/09 10:14:32;;;;;;;5.03;1.98;;;6.20;99.90;;;;;;5015457;28;20044;-65
2021/12/09 10:17:11;;;;;;;1.77;1.08;;;6.20;99.90;;;;;;5013637;28;20112;-65
2021/12/09 10:19:51;;;;;;;2.63;1.38;;;6.10;99.90;;;;;;5018194;28;20030;-65
2021/12/09 10:22:23;;;;;;;6.03;1.48;;;5.90;99.90;;;;;;5014518;28;20120;-65
2021/12/09 10:24:52;;;;;;;4.43;1.60;;;6.30;99.90;;;;;;5016597;28;20030;-65
2021/12/09 10:27:28;;;;;;;4.93;1.10;;;6.80;99.90;;;;;;5014435;28;20460;-66
2021/12/09 10:29:59;;;;;;;4.30;1.42;;;7.90;99.90;;;;;;5014711;28;20592;-65
2021/12/09 10:32:30;;;;;;;3.55;1.58;;;8.40;99.90;;;;;;5015206;28;20021;-65
2021/12/09 10:35:01;;;;;;;5.05;1.60;;;9.10;99.90;;;;;;5012402;28;20029;-65
2021/12/09 10:37:32;;;;;;;1.55;1.05;;;9.00;99.90;;;;;;5018237;28;20064;-65
2021/12/09 10:40:12;;;;;;;5.25;1.83;;;9.00;99.90;;;;;;5020050;28;20037;-65
2021/12/09 10:42:53;;;;;;;3.70;1.48;;;8.20;99.90;;;;;;5015644;28;20026;-65
2021/12/09 10:45:21;;;;;;;3.35;1.92;;;7.40;99.90;;;;;;5011020;28;20033;-65
2021/12/09 10:48:01;;;;;;;4.60;1.55;;;6.80;99.90;;;;;;5010853;28;20367;-65
2021/12/09 10:51:04;;;;;;;4.22;1.52;;;6.60;99.90;;;;;;5015384;28;20075;-66
2021/12/09 10:53:51;;;;;;;3.08;1.55;;;6.20;99.90;;;;;;5018678;28;20105;-65
2021/12/09 10:56:30;;;;;;;3.13;1.92;;;5.80;99.90;;;;;;5014782;28;20075;-65
2021/12/09 10:58:56;;;;;;;4.72;1.85;;;5.70;99.90;;;;;;5018946;28;20021;-65
2021/12/09 11:01:24;;;;;;;1.40;0.90;;;5.70;99.90;;;;;;5017947;28;20478;-65
2021/12/09 11:03:53;;;;;;;2.55;1.23;;;5.60;99.90;;;;;;5019987;28;20025;-65
2021/12/09 11:06:32;;;;;;;2.92;1.35;;;5.60;99.90;;;;;;5018204;28;20500;-65
2021/12/09 11:09:00;;;;;;;3.80;1.75;;;5.80;99.90;;;;;;5017641;28;20114;-65
2021/12/09 11:11:32;;;;;;;5.85;1.75;;;5.90;99.90;;;;;;5024116;28;20044;-65
2021/12/09 11:14:09;;;;;;;12.48;1.80;;;5.70;99.90;;;;;;5025944;28;20041;-65
2021/12/09 11:16:41;;;;;;;4.45;1.67;;;5.70;99.90;;;;;;5023528;28;20045;-65
2021/12/09 11:19:25;;;;;;;15.52;1.58;;;5.70;99.90;;;;;;5013317;28;20497;-65
2021/12/09 11:21:59;;;;;;;2.08;1.10;;;5.70;99.90;;;;;;5022547;28;20045;-65
2021/12/09 11:24:30;;;;;;;4.93;1.70;;;5.80;99.90;;;;;;5021412;28;20481;-65
2021/12/09 11:27:08;;;;;;;4.68;1.30;;;5.80;99.90;;;;;;5021860;28;20516;-65
2021/12/09 11:29:49;;;;;;;2.05;1.20;;;5.70;99.90;;;;;;5022340;28;20037;-65
2021/12/09 11:32:23;;;;;;;3.33;1.90;;;5.70;99.90;;;;;;5020976;28;20053;-65
2021/12/09 11:35:12;;;;;;;5.70;1.52;;;5.80;99.90;;;;;;5024029;28;20499;-65
2021/12/09 11:40:33;;;;;;;2.78;1.30;;;6.10;99.90;;;;;;5021401;28;20026;-65
2021/12/09 11:43:01;;;;;;;6.05;2.35;;;6.60;99.90;;;;;;5020575;28;20082;-65
2021/12/09 11:45:32;;;;;;;4.45;1.83;;;6.60;99.90;;;;;;5012353;28;20138;-65
2021/12/09 11:47:59;;;;;;;;;;;6.30;99.90;;;;;;5017257;28;20068;-65
2021/12/09 11:50:28;;;;;;;3.83;1.50;;;6.00;99.90;;;;;;5015176;28;20373;-65
2021/12/09 11:52:56;;;;;;;2.63;1.48;;;5.90;99.90;;;;;;5020877;28;20026;-65
2021/12/09 11:55:32;;;;;;;2.78;1.63;;;5.90;99.90;;;;;;5024154;28;20055;-65
2021/12/09 11:58:03;;;;;;;5.78;2.03;;;5.80;99.90;;;;;;5017443;28;20094;-65
2021/12/09 12:12:30;;;;;;;6.25;1.90;;;5.50;99.90;;;;;;5013639;28;20127;-65
2021/12/09 12:15:23;;;;;;;3.08;1.63;;;5.60;99.90;;;;;;5010733;28;20025;-65
2021/12/09 12:21:14;;;;;;;3.22;1.50;;;5.80;99.90;;;;;;5012122;28;20409;-65
2021/12/09 12:40:01;;;;;;;4.28;1.88;;;5.50;99.90;;;;;;5016684;28;20561;-65
2021/12/09 12:42:36;;;;;;;10.15;2.38;;;5.40;99.90;;;;;;5016914;28;20489;-65
2021/12/09 12:45:16;;;;;;;4.65;1.40;;;5.30;99.90;;;;;;5019972;28;20429;-65
2021/12/09 12:47:50;;;;;;;4.53;1.45;;;5.30;99.90;;;;;;5020211;28;20399;-65
2021/12/09 12:50:17;;;;;;;9.60;1.52;;;5.30;99.90;;;;;;5020318;28;20037;-65
2021/12/09 12:52:44;;;;;;;6.53;2.03;;;5.30;99.90;;;;;;5019771;28;20036;-65
2021/12/09 12:55:14;;;;;;;4.35;1.75;;;5.30;99.90;;;;;;5017716;28;20037;-65
2021/12/09 12:57:44;;;;;;;5.00;1.70;;;5.50;99.90;;;;;;5020435;28;20370;-65
2021/12/09 13:00:10;;;;;;;2.97;1.35;;;5.60;99.90;;;;;;5018591;28;20037;-65
2021/12/09 13:11:49;;;;;;;4.72;2.22;;;6.20;99.90;;;;;;5019128;28;20183;-65
2021/12/09 13:14:23;;;;;;;0.70;0.70;;;5.80;99.90;;;;;;5015309;28;20018;-66
2021/12/09 13:17:03;;;;;;;2.50;1.20;;;5.70;99.90;;;;;;5020251;28;20021;-65
2021/12/09 13:19:34;;;;;;;5.90;1.98;;;5.80;99.90;;;;;;5019238;28;20033;-66
2021/12/09 13:22:03;;;;;;;1.63;1.10;;;5.70;99.90;;;;;;5015729;28;20485;-65
2021/12/09 13:24:49;;;;;;;2.20;1.20;;;5.80;99.90;;;;;;5019628;28;20029;-65
2021/12/09 13:27:31;;;;;;;19.15;2.10;;;5.70;99.90;;;;;;5022973;28;20056;-65
2021/12/09 13:46:29;;;;;;;;;;;5.70;99.90;;;;;;5024460;28;20078;-66
2021/12/09 13:49:05;;;;;;;2.25;1.33;;;5.80;99.90;;;;;;5028340;28;19924;-65
2021/12/09 13:54:34;;;;;;;1.48;1.05;;;5.70;99.90;;;;;;5028521;28;20057;-66
2021/12/09 13:57:05;;;;;;;4.10;1.52;;;5.70;99.90;;;;;;5026760;28;20436;-65
2021/12/09 13:59:36;;;;;;;2.20;1.35;;;5.70;99.90;;;;;;5024638;28;20393;-65
2021/12/09 14:02:13;;;;;;;7.00;1.65;;;5.70;99.90;;;;;;5029256;28;20102;-66
2021/12/09 14:04:38;;;;;;;3.95;1.73;;;5.70;99.90;;;;;;5026145;28;20075;-65
2021/12/09 14:07:15;;;;;;;4.32;1.70;;;5.80;99.90;;;;;;5024140;28;20041;-66
2021/12/09 14:09:44;;;;;;;9.52;1.38;;;5.70;99.90;;;;;;5027483;28;20018;-65
2021/12/09 14:12:11;;;;;;;2.00;1.08;;;5.70;99.90;;;;;;5028770;28;20064;-65
2021/12/09 14:14:56;;;;;;;3.22;1.50;;;5.60;99.90;;;;;;5012728;28;20518;-65